Time;durP1;ratioP1;P1;durP2;ratioP2;P2;SDS_P1;SDS_P2;PMS_P1;PMS_P2;Temp;Humidity;BMP_temperature;BMP_pressure;BME280_temperature;BME280_humidity;BME280_pressure;Samples;Min_cycle;Max_cycle;Signal;HPM_P1;HPM_P2
2022/02/09 00:02:06;;;;;;;19.63;11.55;;;;;;;10.88;74.23;100739.69;5093008;28;20693;-60
2022/02/09 00:04:41;;;;;;;15.45;11.18;;;;;;;10.87;74.42;100748.50;5093283;28;20048;-62
2022/02/09 00:07:13;;;;;;;21.08;11.15;;;;;;;10.86;74.55;100738.88;5091187;28;20127;-61
2022/02/09 00:09:43;;;;;;;15.23;10.65;;;;;;;10.85;74.66;100738.03;5092806;28;20052;-60
2022/02/09 00:12:19;;;;;;;14.85;10.43;;;;;;;10.85;74.74;100735.41;5093102;28;20097;-60
2022/02/09 00:20:24;;;;;;;16.85;11.05;;;;;;;10.85;74.69;100735.41;5072254;28;20109;-61
2022/02/09 00:42:10;;;;;;;12.70;9.63;;;;;;;10.79;74.95;100720.69;5092140;28;20525;-60
2022/02/09 00:44:41;;;;;;;15.52;8.68;;;;;;;10.79;74.71;100722.47;5091004;28;20044;-64
2022/02/09 01:57:36;;;;;;;12.27;8.23;;;;;;;10.73;75.16;100705.16;5070976;28;20087;-61
2022/02/09 02:00:06;;;;;;;12.38;8.25;;;;;;;10.73;74.63;100709.56;5070516;28;20052;-60
2022/02/09 02:02:33;;;;;;;10.73;8.45;;;;;;;10.73;75.06;100707.78;5069366;28;20480;-62
2022/02/09 02:05:00;;;;;;;10.40;7.93;;;;;;;10.74;75.29;100698.13;5070985;28;20048;-60
2022/02/09 02:07:37;;;;;;;11.68;8.10;;;;;;;10.73;74.78;100704.31;5088920;28;20048;-60
2022/02/09 02:10:08;;;;;;;10.80;7.68;;;;;;;10.73;74.79;100709.56;5090872;28;20052;-60
2022/02/09 02:13:37;;;;;;;9.85;8.05;;;;;;;10.69;73.30;100696.53;5090856;28;20052;-60
2022/02/09 02:18:35;;;;;;;9.30;7.32;;;;;;;10.72;74.82;100692.91;5090903;28;20121;-62
2022/02/09 02:21:27;;;;;;;10.35;7.00;;;;;;;10.69;73.82;100690.41;5090363;28;20385;-60
2022/02/09 02:59:18;;;;;;;10.85;6.82;;;;;;;10.63;74.88;100662.56;5090431;28;20048;-60
2022/02/09 03:12:01;;;;;;;13.85;6.55;;;;;;;10.60;74.88;100652.16;5094593;28;20535;-61
2022/02/09 03:14:56;;;;;;;9.07;5.88;;;;;;;10.58;74.96;100640.00;5094062;28;20040;-60
2022/02/09 03:17:20;;;;;;;6.97;5.65;;;;;;;10.59;74.86;100633.78;5073341;28;20053;-62
2022/02/09 03:19:53;;;;;;;8.68;5.90;;;;;;;10.57;74.97;100633.84;5073260;28;20048;-61
2022/02/09 03:27:40;;;;;;;8.07;5.00;;;;;;;10.58;74.92;100630.28;5093938;28;20040;-59
2022/02/09 03:46:35;;;;;;;5.28;4.47;;;;;;;10.60;74.15;100602.13;5093349;28;20047;-61
2022/02/09 03:49:30;;;;;;;7.70;4.75;;;;;;;10.61;74.27;100600.38;5093585;28;20101;-61
2022/02/09 03:54:57;;;;;;;5.90;4.63;;;;;;;10.61;74.06;100592.47;5073371;28;20049;-61
2022/02/09 03:57:30;;;;;;;5.03;3.95;;;;;;;10.61;74.29;100605.63;5093402;28;20058;-61
2022/02/09 03:59:59;;;;;;;8.38;5.05;;;;;;;10.59;73.91;100603.06;5093181;28;20454;-61
2022/02/09 04:02:27;;;;;;;5.47;4.30;;;;;;;10.59;73.95;100597.81;5093323;28;20052;-60
2022/02/09 04:04:56;;;;;;;6.43;4.72;;;;;;;10.57;73.94;100596.16;5093344;28;20048;-60
2022/02/09 04:07:23;;;;;;;7.03;4.70;;;;;;;10.58;73.47;100595.22;5092814;28;20048;-60
2022/02/09 04:09:54;;;;;;;5.55;4.93;;;;;;;10.58;74.04;100582.91;5093278;28;20048;-62
2022/02/09 04:12:35;;;;;;;8.77;5.65;;;;;;;10.55;73.87;100581.25;5092095;28;20113;-60
2022/02/09 04:15:22;;;;;;;6.68;5.00;;;;;;;10.55;73.98;100578.63;5093199;28;20544;-61
2022/02/09 04:36:03;;;;;;;7.28;5.30;;;;;;;10.53;74.07;100580.50;5072506;28;20443;-62
2022/02/09 04:36:56;;;;;;;7.30;4.93;;;;;;;10.48;74.35;100579.84;5091927;28;20113;-61
2022/02/09 04:39:32;;;;;;;5.00;4.50;;;;;;;10.48;74.49;100581.59;5092741;28;20123;-60
2022/02/09 04:45:03;;;;;;;5.95;4.70;;;;;;;10.49;74.62;100564.88;5092432;28;20048;-60
2022/02/09 04:47:48;;;;;;;5.40;4.53;;;;;;;10.48;74.85;100569.31;5091701;28;20101;-62
2022/02/09 04:50:20;;;;;;;6.35;4.90;;;;;;;10.49;74.72;100580.69;5091699;28;20056;-59
2022/02/09 04:57:56;;;;;;;5.18;4.65;;;;;;;10.47;74.49;100588.63;5091801;28;20051;-59
2022/02/09 05:25:13;;;;;;;7.22;5.57;;;;;;;10.46;74.61;100575.56;5091314;28;20044;-60
2022/02/09 05:27:52;;;;;;;6.18;5.18;;;;;;;10.45;74.64;100569.44;5071144;28;20044;-60
2022/02/09 05:30:19;;;;;;;8.35;5.45;;;;;;;10.47;74.96;100570.22;5068973;28;20048;-60
2022/02/09 05:32:47;;;;;;;9.35;5.75;;;;;;;10.47;75.03;100575.47;5071159;28;20106;-62
2022/02/09 05:35:16;;;;;;;7.13;5.75;;;;;;;10.47;74.89;100577.28;5072911;28;20055;-62
2022/02/09 05:37:42;;;;;;;7.43;6.55;;;;;;;10.47;74.83;100574.66;5090270;28;20554;-60
2022/02/09 05:40:09;;;;;;;8.77;6.80;;;;;;;10.47;75.12;100578.09;5090847;28;20055;-61
2022/02/09 05:42:36;;;;;;;8.05;6.22;;;;;;;10.48;74.99;100571.94;5091234;28;20109;-60
2022/02/09 05:45:07;;;;;;;7.78;6.18;;;;;;;10.50;75.31;100572.72;5090875;28;20048;-60
2022/02/09 05:50:28;;;;;;;8.98;6.20;;;;;;;10.50;75.08;100580.63;5090960;28;20125;-59
2022/02/09 05:58:33;;;;;;;7.00;6.30;;;;;;;10.54;75.26;100565.53;5090922;28;20048;-60
2022/02/09 06:01:01;;;;;;;7.95;6.45;;;;;;;10.56;75.43;100566.34;5089512;28;20047;-61
2022/02/09 06:03:28;;;;;;;7.07;6.38;;;;;;;10.55;75.33;100559.38;5089746;28;20154;-60
2022/02/09 06:05:54;;;;;;;7.05;6.32;;;;;;;10.57;75.29;100573.31;5090436;28;20043;-60
2022/02/09 06:08:23;;;;;;;9.02;6.53;;;;;;;10.57;75.34;100572.47;5091032;28;20052;-61
2022/02/09 06:11:05;;;;;;;8.13;6.65;;;;;;;10.57;75.27;100578.56;5089373;28;20454;-61
2022/02/09 06:14:21;;;;;;;6.70;6.10;;;;;;;10.55;75.22;100573.38;5091286;28;20052;-61
2022/02/09 06:21:51;;;;;;;7.13;6.43;;;;;;;10.55;75.31;100570.75;5090780;28;20105;-60
2022/02/09 06:24:18;;;;;;;7.45;6.65;;;;;;;10.54;75.53;100576.06;5090539;28;20093;-60
2022/02/09 06:26:45;;;;;;;7.10;6.40;;;;;;;10.55;75.43;100575.16;5090322;28;20044;-62
2022/02/09 06:29:12;;;;;;;7.15;6.45;;;;;;;10.53;75.28;100577.00;5090158;28;20566;-61
2022/02/09 06:31:39;;;;;;;7.57;6.55;;;;;;;10.52;75.33;100578.78;5089390;28;20108;-60
2022/02/09 06:34:08;;;;;;;6.70;5.88;;;;;;;10.51;75.37;100599.91;5090638;28;20093;-60
2022/02/09 06:36:41;;;;;;;8.27;5.85;;;;;;;10.48;75.24;100584.25;5090381;28;20044;-61
2022/02/09 06:39:09;;;;;;;6.80;5.75;;;;;;;10.46;75.39;100572.94;5089180;28;20523;-61
2022/02/09 06:41:36;;;;;;;5.70;5.10;;;;;;;10.45;75.88;100573.84;5092211;28;20049;-61
2022/02/09 06:44:04;;;;;;;5.55;4.95;;;;;;;10.45;75.74;100569.44;5094569;28;20047;-59
2022/02/09 06:46:34;;;;;;;5.57;4.88;;;;;;;10.43;75.78;100565.97;5093353;28;20048;-60
2022/02/09 06:49:07;;;;;;;5.20;4.70;;;;;;;10.41;75.64;100581.00;5094593;28;20036;-59
2022/02/09 06:51:39;;;;;;;8.10;4.30;;;;;;;10.39;75.53;100564.41;5094187;28;20093;-61
2022/02/09 06:54:13;;;;;;;5.38;4.35;;;;;;;10.40;75.76;100571.38;5093156;28;20075;-63
2022/02/09 06:59:28;;;;;;;4.38;3.97;;;;;;;10.35;75.94;100571.56;5094294;28;20066;-59
2022/02/09 07:02:02;;;;;;;4.65;4.25;;;;;;;10.33;76.10;100585.72;5094395;28;20056;-59
2022/02/09 07:04:28;;;;;;;5.18;3.90;;;;;;;10.32;76.11;100584.03;5093056;28;20044;-67
2022/02/09 07:06:55;;;;;;;4.20;3.80;;;;;;;10.32;76.40;100582.22;5094321;28;20044;-59
2022/02/09 07:09:23;;;;;;;4.30;3.90;;;;;;;10.30;76.41;100584.94;5093933;28;20097;-61
2022/02/09 07:11:54;;;;;;;4.88;3.95;;;;;;;10.26;76.02;100580.72;5093193;28;20093;-61
2022/02/09 07:14:27;;;;;;;5.53;4.20;;;;;;;10.29;76.51;100571.84;5092738;28;20044;-60
2022/02/09 07:16:56;;;;;;;4.72;4.22;;;;;;;10.29;76.55;100574.47;5092178;28;20048;-60
2022/02/09 07:19:22;;;;;;;5.20;4.50;;;;;;;10.27;76.58;100569.28;5092591;28;20044;-61
2022/02/09 07:21:49;;;;;;;6.60;4.55;;;;;;;10.27;76.69;100563.16;5094045;28;20059;-60
2022/02/09 07:24:19;;;;;;;6.10;5.05;;;;;;;10.23;76.72;100554.53;5093718;28;20101;-60
2022/02/09 07:29:14;;;;;;;6.82;6.10;;;;;;;10.20;77.11;100562.56;5093556;28;20044;-61
2022/02/09 07:31:43;;;;;;;6.47;5.80;;;;;;;10.20;77.12;100564.34;5093720;28;20492;-59
2022/02/09 07:34:10;;;;;;;7.65;6.75;;;;;;;10.14;77.36;100561.03;5092991;28;20077;-60
2022/02/09 07:36:39;;;;;;;7.13;6.40;;;;;;;10.13;77.55;100566.38;5093429;28;20052;-60
2022/02/09 07:39:10;;;;;;;7.40;6.57;;;;;;;10.12;77.72;100559.38;5092706;28;20797;-64
2022/02/09 07:41:41;;;;;;;7.60;6.22;;;;;;;10.11;77.72;100560.31;5093473;28;20556;-61
2022/02/09 07:46:54;;;;;;;8.07;6.90;;;;;;;10.11;78.05;100560.31;5092820;28;20051;-61
2022/02/09 07:49:25;;;;;;;7.38;6.28;;;;;;;10.12;78.00;100564.66;5093246;28;20058;-61
2022/02/09 07:52:12;;;;;;;7.63;6.82;;;;;;;10.11;77.86;100571.72;5093096;28;20052;-61
2022/02/09 07:54:39;;;;;;;8.93;6.60;;;;;;;10.11;78.06;100582.22;5092873;28;20051;-62
2022/02/09 07:57:07;;;;;;;6.75;6.00;;;;;;;10.11;78.17;100568.22;5093415;28;20043;-61
2022/02/09 07:59:33;;;;;;;6.97;6.25;;;;;;;10.11;78.21;100565.59;5093195;28;20118;-60
2022/02/09 08:02:00;;;;;;;6.15;5.55;;;;;;;10.11;78.11;100573.47;5092988;28;20040;-60
2022/02/09 08:04:26;;;;;;;5.78;5.05;;;;;;;10.11;78.24;100562.94;5093134;28;20044;-61
2022/02/09 08:06:54;;;;;;;6.15;5.40;;;;;;;10.13;78.21;100555.88;5092870;28;20101;-61
2022/02/09 08:09:31;;;;;;;5.65;5.07;;;;;;;10.14;78.23;100561.03;5092699;28;20098;-60
2022/02/09 08:31:21;;;;;;;6.47;5.87;;;;;;;10.23;78.08;100565.06;5092435;28;20048;-60
2022/02/09 08:33:47;;;;;;;6.18;5.55;;;;;;;10.23;78.09;100559.81;5092563;28;20097;-60
2022/02/09 08:36:17;;;;;;;6.95;6.25;;;;;;;10.24;78.16;100550.97;5091023;28;20077;-59
2022/02/09 08:38:44;;;;;;;6.78;6.07;;;;;;;10.23;78.10;100554.53;5092419;28;20055;-60
2022/02/09 08:41:11;;;;;;;7.28;6.57;;;;;;;10.25;78.04;100547.41;5091281;28;20450;-60
2022/02/09 08:43:39;;;;;;;6.65;5.95;;;;;;;10.23;77.98;100545.78;5092570;28;20055;-60
2022/02/09 08:46:06;;;;;;;6.60;6.00;;;;;;;10.24;78.09;100542.25;5092382;28;20048;-61
2022/02/09 08:48:33;;;;;;;7.18;6.28;;;;;;;10.24;78.23;100548.34;5092269;28;20062;-60
2022/02/09 08:51:00;;;;;;;7.18;6.47;;;;;;;10.24;78.16;100548.34;5092210;28;20051;-61
2022/02/09 08:53:27;;;;;;;6.85;6.20;;;;;;;10.25;78.01;100573.75;5092199;28;20089;-60
2022/02/09 08:55:53;;;;;;;8.32;6.00;;;;;;;10.23;77.79;100549.28;5092397;28;20062;-61
2022/02/09 08:58:21;;;;;;;6.65;6.00;;;;;;;10.22;77.86;100550.22;5092221;28;20059;-60
2022/02/09 09:00:48;;;;;;;7.03;5.95;;;;;;;10.22;77.93;100552.84;5091958;28;20044;-59
2022/02/09 09:05:50;;;;;;;7.47;6.45;;;;;;;10.20;78.16;100561.72;5092169;28;20059;-59
2022/02/09 09:25:14;;;;;;;7.35;6.03;;;;;;;10.10;78.25;100571.78;5091629;28;20550;-62
2022/02/09 10:03:36;;;;;;;8.57;5.43;;;;;;;10.25;77.98;100572.91;5091130;28;20147;-60
2022/02/09 10:35:29;;;;;;;6.03;5.40;;;;;;;10.18;78.02;100588.09;5090671;28;20051;-63
2022/02/09 10:38:00;;;;;;;7.38;6.25;;;;;;;10.21;78.28;100582.69;5090882;28;20055;-61
2022/02/09 10:40:41;;;;;;;6.18;5.57;;;;;;;10.18;78.08;100580.19;5089115;28;20052;-61
2022/02/09 10:43:32;;;;;;;6.97;5.75;;;;;;;10.14;77.92;100582.09;5089374;28;20052;-60
2022/02/09 10:46:17;;;;;;;7.55;5.90;;;;;;;10.16;78.15;100588.16;5090602;28;20067;-58
2022/02/09 10:48:51;;;;;;;7.60;6.15;;;;;;;10.18;78.67;100577.56;5090484;28;20109;-61
2022/02/09 10:51:49;;;;;;;7.43;6.53;;;;;;;10.17;78.43;100578.50;5090469;28;20455;-59
2022/02/09 10:54:10;;;;;;;6.68;6.00;;;;;;;10.21;78.93;100576.59;5090219;28;20052;-60
2022/02/09 10:56:39;;;;;;;6.32;5.68;;;;;;;10.22;79.06;100580.91;5090625;28;20109;-59
2022/02/09 10:59:09;;;;;;;7.43;6.63;;;;;;;10.23;78.53;100585.25;5090101;28;20055;-60
2022/02/09 11:01:38;;;;;;;9.13;6.90;;;;;;;10.23;78.65;100574.72;5089105;28;20044;-60
2022/02/09 11:04:05;;;;;;;7.43;6.45;;;;;;;10.25;78.89;100563.22;5089917;28;20094;-60
2022/02/09 11:06:41;;;;;;;7.25;6.05;;;;;;;10.25;77.88;100571.09;5072365;28;20052;-60
2022/02/09 11:09:09;;;;;;;7.03;6.32;;;;;;;10.29;78.57;100583.22;5088946;28;20485;-61
2022/02/09 11:11:39;;;;;;;7.18;6.35;;;;;;;10.31;78.84;100562.09;5089124;28;20048;-61
2022/02/09 11:14:10;;;;;;;6.32;5.68;;;;;;;10.36;78.94;100559.28;5090235;28;20094;-62
2022/02/09 11:16:37;;;;;;;7.18;6.13;;;;;;;10.38;78.88;100570.59;5090073;28;20455;-62
2022/02/09 11:19:05;;;;;;;9.05;7.00;;;;;;;10.41;78.67;100573.97;5090532;28;20060;-60
2022/02/09 11:21:36;;;;;;;8.15;7.30;;;;;;;10.43;78.45;100571.22;5090090;28;20048;-62
2022/02/09 11:24:24;;;;;;;7.63;6.82;;;;;;;10.41;77.27;100567.81;5089008;28;20052;-60
2022/02/09 11:32:17;;;;;;;10.32;7.30;;;;;;;10.48;78.08;100566.69;5093730;28;20102;-60
2022/02/09 11:34:54;;;;;;;7.00;6.30;;;;;;;10.51;77.81;100571.78;5093699;28;20052;-60
2022/02/09 11:37:36;;;;;;;9.07;6.88;;;;;;;10.55;78.12;100562.84;5092297;28;20051;-61
2022/02/09 11:40:25;;;;;;;8.18;7.30;;;;;;;10.57;76.66;100561.94;5093348;28;20105;-60
2022/02/09 11:43:00;;;;;;;7.63;6.82;;;;;;;10.66;78.22;100566.78;5093695;28;20059;-60
2022/02/09 11:45:43;;;;;;;8.95;7.07;;;;;;;10.65;77.70;100559.81;5093411;28;20049;-60
2022/02/09 11:59:47;;;;;;;7.30;6.07;;;;;;;10.77;76.29;100563.69;5094533;27;20051;-61
2022/02/09 12:08:54;;;;;;;7.88;6.47;;;;;;;10.78;76.08;100555.72;5093253;28;20059;-61
2022/02/09 12:11:32;;;;;;;8.20;7.03;;;;;;;10.78;75.78;100565.38;5091503;28;20044;-59
2022/02/09 12:14:15;;;;;;;7.47;6.78;;;;;;;10.78;77.06;100563.63;5092944;28;20048;-59
2022/02/09 12:17:01;;;;;;;7.38;5.95;;;;;;;10.80;77.15;100555.63;5093022;28;20101;-61
2022/02/09 12:19:46;;;;;;;8.48;6.60;;;;;;;10.80;77.36;100553.84;5092976;28;20060;-60
2022/02/09 12:22:22;;;;;;;8.38;6.75;;;;;;;10.79;76.39;100552.16;5092843;28;20047;-62
2022/02/09 12:24:56;;;;;;;11.52;7.22;;;;;;;10.78;75.89;100557.47;5092695;28;20389;-61
2022/02/09 12:27:23;;;;;;;8.70;6.60;;;;;;;10.80;77.14;100550.34;5091649;28;20192;-60
2022/02/09 12:30:03;;;;;;;7.57;6.63;;;;;;;10.77;76.48;100553.97;5091082;28;20500;-62
2022/02/09 12:32:32;;;;;;;10.02;6.47;;;;;;;10.80;77.26;100548.59;5092747;28;20040;-60
2022/02/09 12:35:10;;;;;;;8.68;6.63;;;;;;;10.77;75.71;100558.41;5091519;28;20056;-60
2022/02/09 12:37:41;;;;;;;7.35;6.50;;;;;;;10.78;76.78;100545.19;5091152;28;20496;-60
2022/02/09 12:40:15;;;;;;;7.88;7.07;;;;;;;10.78;76.68;100547.81;5090412;28;20500;-60
2022/02/09 12:42:51;;;;;;;8.73;7.28;;;;;;;10.80;77.19;100540.69;5091209;28;20056;-60
2022/02/09 12:45:19;;;;;;;7.78;6.97;;;;;;;10.80;76.84;100534.56;5092692;28;20067;-61
2022/02/09 12:47:52;;;;;;;8.55;7.18;;;;;;;10.81;77.32;100542.38;5092394;28;21065;-61
2022/02/09 12:50:23;;;;;;;9.80;7.03;;;;;;;10.85;77.68;100544.88;5091929;28;20048;-61
2022/02/09 12:52:51;;;;;;;8.25;7.30;;;;;;;10.86;77.61;100541.31;5091067;28;20040;-61
2022/02/09 12:55:29;;;;;;;9.82;7.53;;;;;;;10.89;77.66;100538.56;5090872;28;20052;-60
2022/02/09 12:58:08;;;;;;;8.45;7.30;;;;;;;10.90;77.07;100545.53;5092156;28;20044;-61
2022/02/09 13:00:40;;;;;;;9.35;7.28;;;;;;;10.93;76.68;100524.31;5090660;28;20457;-61
2022/02/09 13:03:16;;;;;;;8.73;7.03;;;;;;;10.96;77.40;100524.19;5092005;28;20087;-60
2022/02/09 13:05:57;;;;;;;8.45;7.13;;;;;;;10.98;76.84;100526.75;5091052;28;20048;-59
2022/02/09 13:08:29;;;;;;;10.30;7.18;;;;;;;10.99;77.04;100536.38;5090872;28;20052;-61
2022/02/09 13:11:35;;;;;;;7.40;6.60;;;;;;;10.97;76.12;100523.25;5091801;28;20047;-60
2022/02/09 13:14:03;;;;;;;9.30;6.75;;;;;;;11.01;77.10;100521.31;5091752;28;20060;-60
2022/02/09 13:16:48;;;;;;;9.05;6.93;;;;;;;11.00;75.44;100533.66;5090993;28;20093;-60
2022/02/09 14:15:34;;;;;;;8.98;7.40;;;;;;;11.38;75.83;100516.09;5087943;28;20121;-61
2022/02/09 14:53:41;;;;;;;7.40;6.57;;;;;;;11.42;75.33;100523.78;5090430;28;20089;-61
2022/02/09 14:56:28;;;;;;;7.22;6.43;;;;;;;11.44;75.28;100521.09;5090512;28;20447;-62
2022/02/09 14:59:00;;;;;;;7.25;6.55;;;;;;;11.44;75.11;100529.84;5090361;28;20056;-60
2022/02/09 15:01:40;;;;;;;7.57;6.80;;;;;;;11.43;74.67;100532.53;5090057;28;20051;-61
2022/02/09 15:24:24;;;;;;;6.65;5.97;;;;;;;11.50;74.32;100526.06;5093975;28;20069;-59
2022/02/09 15:26:53;;;;;;;7.75;5.78;;;;;;;11.51;74.52;100529.56;5093936;28;20059;-59
2022/02/09 15:29:19;;;;;;;6.53;5.88;;;;;;;11.50;74.74;100520.78;5093649;28;20052;-60
2022/02/09 15:31:52;;;;;;;10.60;6.20;;;;;;;11.52;74.76;100531.25;5093508;28;20054;-60
2022/02/09 15:39:18;;;;;;;9.05;6.43;;;;;;;11.53;74.30;100541.72;5093498;28;20135;-60
2022/02/09 15:43:01;;;;;;;6.78;6.07;;;;;;;11.51;73.81;100533.03;5093526;28;20526;-60
2022/02/09 16:25:51;;;;;;;9.98;7.88;;;;;;;11.21;74.00;100515.13;5030032;28;20091;-60
2022/02/09 16:46:38;;;;;;;9.73;7.45;;;;;;;11.16;73.89;100527.66;5092527;28;20130;-59
2022/02/09 16:49:09;;;;;;;11.30;8.10;;;;;;;11.15;74.33;100523.31;5092344;28;20055;-60
2022/02/09 16:51:52;;;;;;;10.27;8.13;;;;;;;11.14;74.18;100516.34;5091093;28;20105;-60
2022/02/09 17:21:13;;;;;;;10.35;8.50;;;;;;;11.08;74.14;100535.94;5091251;28;20055;-62
2022/02/09 17:23:40;;;;;;;11.75;8.77;;;;;;;11.05;73.92;100536.06;5091618;28;20052;-60
2022/02/09 17:26:08;;;;;;;10.40;9.13;;;;;;;11.04;73.89;100537.88;5090022;28;20492;-60
2022/02/09 17:28:35;;;;;;;10.73;8.68;;;;;;;11.02;74.39;100526.53;5090374;28;20064;-60
2022/02/09 17:36:38;;;;;;;10.70;9.30;;;;;;;11.02;74.30;100539.69;5091237;28;20525;-60
2022/02/09 17:55:49;;;;;;;12.18;10.48;;;;;;;10.94;74.72;100542.69;5090594;28;20077;-67
2022/02/09 17:58:13;;;;;;;13.32;10.52;;;;;;;10.93;74.93;100530.47;5090661;28;20043;-60
2022/02/09 18:00:40;;;;;;;13.30;11.13;;;;;;;10.93;74.81;100529.59;5091037;28;20047;-59
2022/02/09 18:03:07;;;;;;;13.23;11.43;;;;;;;10.90;74.77;100538.50;5090866;28;20047;-61
2022/02/09 18:05:44;;;;;;;13.73;11.35;;;;;;;10.89;74.94;100534.16;5090699;28;20051;-59
2022/02/09 18:08:20;;;;;;;13.48;10.55;;;;;;;10.88;74.90;100539.50;5091046;28;20097;-61
2022/02/09 18:47:59;;;;;;;18.02;14.38;;;;;;;10.74;75.75;100521.69;5093855;28;20052;-59
2022/02/09 19:07:16;;;;;;;17.52;15.25;;;;;;;10.69;76.28;100530.63;5094769;28;20064;-61
2022/02/09 19:18:29;;;;;;;18.17;15.38;;;;;;;10.68;76.55;100530.69;5094317;28;20044;-60
2022/02/09 19:26:13;;;;;;;18.65;14.75;;;;;;;10.68;76.24;100517.53;5093910;28;20047;-60
2022/02/09 19:26:47;;;;;;;18.98;16.13;;;;;;;10.66;76.22;100509.69;5093635;28;20040;-59
2022/02/09 19:32:21;;;;;;;21.38;16.35;;;;;;;10.67;76.57;100515.84;5094032;28;20508;-60
2022/02/09 19:48:32;;;;;;;21.67;16.98;;;;;;;10.64;76.49;100501.03;5086071;28;20056;-60
2022/02/09 19:51:17;;;;;;;21.48;17.67;;;;;;;10.63;76.36;100493.19;5091805;28;20656;-59
2022/02/09 19:56:16;;;;;;;23.23;17.98;;;;;;;10.62;76.60;100492.34;5093656;28;20640;-60
2022/02/09 19:58:52;;;;;;;24.48;17.63;;;;;;;10.61;76.50;100489.81;5093195;28;20557;-60
2022/02/09 20:01:21;;;;;;;23.15;17.90;;;;;;;10.62;76.86;100489.69;5091649;28;20076;-61
2022/02/09 20:03:48;;;;;;;21.95;18.05;;;;;;;10.61;76.53;100482.75;5093317;28;20113;-61
2022/02/09 20:06:15;;;;;;;23.08;17.98;;;;;;;10.62;77.03;100487.06;5093673;28;20048;-60
2022/02/09 20:08:42;;;;;;;25.00;17.63;;;;;;;10.62;76.92;100491.50;5093495;28;20060;-60
2022/02/09 20:11:14;;;;;;;23.92;19.27;;;;;;;10.63;76.89;100487.94;5091821;28;20527;-60
2022/02/09 20:13:41;;;;;;;23.67;18.33;;;;;;;10.63;76.89;100478.28;5093430;28;20044;-59
2022/02/09 20:16:09;;;;;;;22.88;18.48;;;;;;;10.65;76.88;100483.47;5092591;28;20052;-59
2022/02/09 20:18:35;;;;;;;23.42;18.15;;;;;;;10.66;76.90;100482.53;5092985;28;20059;-62
2022/02/09 20:21:03;;;;;;;24.40;18.52;;;;;;;10.66;76.76;100493.06;5092808;28;20447;-59
2022/02/09 20:23:32;;;;;;;24.00;19.23;;;;;;;10.66;76.62;100486.00;5091830;28;20553;-60
2022/02/09 20:26:03;;;;;;;22.67;18.48;;;;;;;10.67;76.85;100478.97;5093006;28;20056;-61
2022/02/09 20:28:29;;;;;;;24.38;19.55;;;;;;;10.66;76.78;100479.91;5091562;28;20052;-60
2022/02/09 20:31:04;;;;;;;23.73;18.55;;;;;;;10.67;76.78;100486.88;5091968;28;20105;-60
2022/02/09 20:33:46;;;;;;;22.30;18.17;;;;;;;10.68;76.84;100485.94;5091617;28;20101;-60
2022/02/09 20:36:16;;;;;;;25.15;19.02;;;;;;;10.67;76.51;100500.91;5093109;28;20374;-60
2022/02/09 20:38:45;;;;;;;21.08;17.55;;;;;;;10.67;76.67;100492.13;5092731;28;20044;-59
2022/02/09 20:41:13;;;;;;;27.67;20.17;;;;;;;10.65;76.70;100491.38;5091409;28;20542;-59
2022/02/09 20:43:55;;;;;;;23.30;18.45;;;;;;;10.63;76.66;100491.44;5087915;28;20052;-60
2022/02/09 20:46:22;;;;;;;27.20;19.10;;;;;;;10.63;76.76;100493.19;5086419;28;20083;-59
2022/02/09 20:48:49;;;;;;;26.70;19.50;;;;;;;10.63;76.71;100498.47;5092065;28;20491;-61
2022/02/09 20:51:16;;;;;;;28.67;19.80;;;;;;;10.59;76.68;100489.88;5091409;28;20044;-62
2022/02/09 20:53:43;;;;;;;26.30;19.17;;;;;;;10.59;76.80;100495.13;5092194;28;20048;-60
2022/02/09 20:56:10;;;;;;;25.50;18.20;;;;;;;10.59;76.85;100496.91;5090539;28;20052;-59
2022/02/09 20:58:41;;;;;;;26.58;20.45;;;;;;;10.57;76.88;100490.84;5089949;28;20052;-60
2022/02/09 21:01:14;;;;;;;27.80;19.83;;;;;;;10.57;76.91;100483.78;5074140;28;20047;-61
2022/02/09 21:03:50;;;;;;;24.98;19.40;;;;;;;10.57;76.89;100482.97;5091035;28;20044;-61
2022/02/09 21:09:12;;;;;;;26.67;19.75;;;;;;;10.55;76.92;100481.22;5091931;28;20135;-59
2022/02/09 21:12:16;;;;;;;25.15;19.73;;;;;;;10.54;76.90;100484.78;5091577;28;20492;-60
2022/02/09 21:14:52;;;;;;;26.73;20.73;;;;;;;10.55;76.99;100475.97;5091493;28;20082;-61
2022/02/09 21:17:53;;;;;;;26.08;20.65;;;;;;;10.55;76.84;100472.50;5090008;28;20489;-60
2022/02/09 21:23:05;;;;;;;26.20;20.13;;;;;;;10.55;76.91;100473.34;5091821;28;20044;-62
2022/02/09 21:52:37;;;;;;;29.23;22.02;;;;;;;10.52;77.10;100443.66;5070829;28;20551;-58
2022/02/09 21:54:57;;;;;;;31.88;22.15;;;;;;;10.51;77.00;100442.81;5070865;28;20111;-59
2022/02/09 22:25:13;;;;;;;32.87;24.67;;;;;;;10.45;77.33;100413.28;5090955;28;20052;-62
2022/02/09 22:46:35;;;;;;;30.20;22.25;;;;;;;10.42;77.36;100386.16;5090746;28;20484;-59
2022/02/09 22:49:04;;;;;;;28.98;21.27;;;;;;;10.44;77.37;100388.75;5090066;28;20094;-59
2022/02/09 22:54:30;;;;;;;29.42;21.33;;;;;;;10.43;77.45;100381.72;5090471;28;20052;-60
2022/02/09 22:56:56;;;;;;;31.40;22.23;;;;;;;10.43;77.53;100379.09;5090374;28;20381;-59
2022/02/09 22:59:40;;;;;;;35.85;23.42;;;;;;;10.43;77.63;100377.34;5090353;28;20047;-61
2022/02/09 23:02:14;;;;;;;31.08;21.80;;;;;;;10.45;77.44;100373.81;5090704;28;20094;-60
2022/02/09 23:04:55;;;;;;;31.83;23.25;;;;;;;10.45;77.62;100371.16;5088778;28;20101;-58
2022/02/09 23:07:29;;;;;;;33.58;23.17;;;;;;;10.45;77.19;100361.50;5090374;28;20075;-60
2022/02/09 23:10:11;;;;;;;31.73;22.30;;;;;;;10.46;77.46;100359.75;5089032;28;20148;-58
2022/02/09 23:12:51;;;;;;;35.28;23.67;;;;;;;10.45;77.40;100356.25;5090399;28;20442;-60
2022/02/09 23:58:33;;;;;;;30.88;20.30;;;;;;;10.37;77.38;100326.75;5093398;28;20044;-60
